sensor_id;sensor_type;location;lat;lon;timestamp;pressure;altitude;pressure_sealevel;temperature;humidity
19736;BME280;32064;49.310;8.646;2023-03-01T00:00:11;101502.88;;;4.64;51.19
19736;BME280;32064;49.310;8.646;2023-03-01T00:02:37;101499.38;;;4.65;50.02
19736;BME280;32064;49.310;8.646;2023-03-01T00:05:02;101491.56;;;4.64;50.87
19736;BME280;32064;49.310;8.646;2023-03-01T00:07:28;101485.50;;;4.63;51.59
19736;BME280;32064;49.310;8.646;2023-03-01T00:09:53;101490.72;;;4.63;51.46
19736;BME280;32064;49.310;8.646;2023-03-01T00:12:19;101494.28;;;4.61;50.73
19736;BME280;32064;49.310;8.646;2023-03-01T00:14:45;101490.78;;;4.62;50.03
19736;BME280;32064;49.310;8.646;2023-03-01T00:17:10;101483.91;;;4.59;51.35
19736;BME280;32064;49.310;8.646;2023-03-01T00:19:35;101485.66;;;4.59;51.19
19736;BME280;32064;49.310;8.646;2023-03-01T00:22:02;101486.50;;;4.59;51.74
19736;BME280;32064;49.310;8.646;2023-03-01T00:24:27;101490.06;;;4.57;51.97
19736;BME280;32064;49.310;8.646;2023-03-01T00:26:54;101494.41;;;4.56;51.03
19736;BME280;32064;49.310;8.646;2023-03-01T00:29:21;101498.75;;;4.56;52.07
19736;BME280;32064;49.310;8.646;2023-03-01T00:31:47;101491.75;;;4.58;51.59
19736;BME280;32064;49.310;8.646;2023-03-01T00:34:12;101497.03;;;4.56;50.72
19736;BME280;32064;49.310;8.646;2023-03-01T00:36:38;101498.81;;;4.54;51.55
19736;BME280;32064;49.310;8.646;2023-03-01T00:39:07;101494.50;;;4.53;50.65
19736;BME280;32064;49.310;8.646;2023-03-01T00:41:32;101491.00;;;4.53;51.45
19736;BME280;32064;49.310;8.646;2023-03-01T00:43:59;101487.66;;;4.49;51.60
19736;BME280;32064;49.310;8.646;2023-03-01T00:46:26;101498.91;;;4.49;51.75
19736;BME280;32064;49.310;8.646;2023-03-01T00:48:52;101497.16;;;4.50;52.08
19736;BME280;32064;49.310;8.646;2023-03-01T00:51:23;101491.25;;;4.45;51.58
19736;BME280;32064;49.310;8.646;2023-03-01T00:53:50;101496.47;;;4.45;52.05
19736;BME280;32064;49.310;8.646;2023-03-01T00:56:16;101498.19;;;4.44;52.63
19736;BME280;32064;49.310;8.646;2023-03-01T00:58:41;101498.31;;;4.40;51.74
19736;BME280;32064;49.310;8.646;2023-03-01T01:01:30;101507.84;;;4.41;52.28
19736;BME280;32064;49.310;8.646;2023-03-01T01:04:04;101502.78;;;4.36;52.86
19736;BME280;32064;49.310;8.646;2023-03-01T01:06:35;101503.63;;;4.37;51.36
19736;BME280;32064;49.310;8.646;2023-03-01T01:09:03;101502.78;;;4.36;51.19
19736;BME280;32064;49.310;8.646;2023-03-01T01:11:30;101507.06;;;4.37;52.56
19736;BME280;32064;49.310;8.646;2023-03-01T01:13:56;101501.00;;;4.37;51.43
19736;BME280;32064;49.310;8.646;2023-03-01T01:16:24;101492.34;;;4.36;52.17
19736;BME280;32064;49.310;8.646;2023-03-01T01:18:51;101490.63;;;4.35;52.40
19736;BME280;32064;49.310;8.646;2023-03-01T01:21:18;101488.06;;;4.34;52.43
19736;BME280;32064;49.310;8.646;2023-03-01T01:23:45;101476.81;;;4.33;52.67
19736;BME280;32064;49.310;8.646;2023-03-01T01:26:16;101470.72;;;4.33;52.80
19736;BME280;32064;49.310;8.646;2023-03-01T01:28:42;101462.06;;;4.32;53.06
19736;BME280;32064;49.310;8.646;2023-03-01T01:31:07;101461.28;;;4.28;52.79
19736;BME280;32064;49.310;8.646;2023-03-01T01:33:33;101456.09;;;4.28;53.07
19736;BME280;32064;49.310;8.646;2023-03-01T01:35:59;101455.25;;;4.26;51.85
19736;BME280;32064;49.310;8.646;2023-03-01T01:38:24;101443.16;;;4.25;51.99
19736;BME280;32064;49.310;8.646;2023-03-01T01:40:50;101450.97;;;4.25;53.45
19736;BME280;32064;49.310;8.646;2023-03-01T01:43:35;101452.81;;;4.20;52.00
19736;BME280;32064;49.310;8.646;2023-03-01T01:46:04;101449.41;;;4.18;53.31
19736;BME280;32064;49.310;8.646;2023-03-01T01:48:54;101448.81;;;4.09;53.23
19736;BME280;32064;49.310;8.646;2023-03-01T01:51:28;101436.63;;;4.09;53.12
19736;BME280;32064;49.310;8.646;2023-03-01T01:54:06;101444.41;;;4.11;53.35
19736;BME280;32064;49.310;8.646;2023-03-01T01:56:34;101437.44;;;4.11;53.77
19736;BME280;32064;49.310;8.646;2023-03-01T01:59:02;101437.44;;;4.11;53.43
19736;BME280;32064;49.310;8.646;2023-03-01T02:01:27;101429.66;;;4.11;52.98
19736;BME280;32064;49.310;8.646;2023-03-01T02:03:53;101430.50;;;4.12;53.92
19736;BME280;32064;49.310;8.646;2023-03-01T02:08:56;101415.97;;;4.03;52.63
19736;BME280;32064;49.310;8.646;2023-03-01T02:11:22;101410.75;;;4.03;53.55
19736;BME280;32064;49.310;8.646;2023-03-01T02:13:49;101408.94;;;4.07;53.23
19736;BME280;32064;49.310;8.646;2023-03-01T02:16:16;101410.69;;;4.06;53.58
19736;BME280;32064;49.310;8.646;2023-03-01T02:18:42;101407.16;;;4.07;53.48
19736;BME280;32064;49.310;8.646;2023-03-01T02:23:41;101398.50;;;4.07;53.41
19736;BME280;32064;49.310;8.646;2023-03-01T02:26:23;101396.91;;;4.02;53.18
19736;BME280;32064;49.310;8.646;2023-03-01T02:28:52;101404.72;;;4.02;54.11
19736;BME280;32064;49.310;8.646;2023-03-01T02:31:19;101397.78;;;4.01;53.85
19736;BME280;32064;49.310;8.646;2023-03-01T02:34:06;101399.50;;;4.02;53.15
19736;BME280;32064;49.310;8.646;2023-03-01T02:36:37;101394.47;;;3.96;54.16
19736;BME280;32064;49.310;8.646;2023-03-01T02:39:06;101406.69;;;3.93;53.06
19736;BME280;32064;49.310;8.646;2023-03-01T02:41:35;101395.44;;;3.92;53.46
19736;BME280;32064;49.310;8.646;2023-03-01T02:44:03;101386.75;;;3.92;54.07
19736;BME280;32064;49.310;8.646;2023-03-01T02:46:28;101385.00;;;3.94;54.06
19736;BME280;32064;49.310;8.646;2023-03-01T02:48:58;101390.31;;;3.89;53.30
19736;BME280;32064;49.310;8.646;2023-03-01T02:51:42;101386.88;;;3.87;53.54
19736;BME280;32064;49.310;8.646;2023-03-01T02:54:24;101382.56;;;3.86;53.67
19736;BME280;32064;49.310;8.646;2023-03-01T02:56:50;101381.66;;;3.87;53.01
19736;BME280;32064;49.310;8.646;2023-03-01T02:59:19;101381.75;;;3.84;54.15
19736;BME280;32064;49.310;8.646;2023-03-01T03:01:45;101377.53;;;3.80;54.46
19736;BME280;32064;49.310;8.646;2023-03-01T03:04:16;101369.81;;;3.77;54.15
19736;BME280;32064;49.310;8.646;2023-03-01T03:06:45;101371.50;;;3.78;53.93
19736;BME280;32064;49.310;8.646;2023-03-01T03:09:12;101373.34;;;3.74;54.93
19736;BME280;32064;49.310;8.646;2023-03-01T03:11:38;101365.53;;;3.74;53.89
19736;BME280;32064;49.310;8.646;2023-03-01T03:14:05;101367.25;;;3.75;54.22
19736;BME280;32064;49.310;8.646;2023-03-01T03:16:31;101358.66;;;3.72;53.81
19736;BME280;32064;49.310;8.646;2023-03-01T03:18:56;101348.38;;;3.67;54.89
19736;BME280;32064;49.310;8.646;2023-03-01T03:21:33;101353.63;;;3.66;54.63
19736;BME280;32064;49.310;8.646;2023-03-01T03:23:59;101351.81;;;3.68;54.31
19736;BME280;32064;49.310;8.646;2023-03-01T03:26:25;101352.69;;;3.68;54.75
19736;BME280;32064;49.310;8.646;2023-03-01T03:28:50;101344.06;;;3.66;55.02
19736;BME280;32064;49.310;8.646;2023-03-01T03:31:16;101344.94;;;3.65;54.65
19736;BME280;32064;49.310;8.646;2023-03-01T03:33:41;101346.75;;;3.63;54.02
19736;BME280;32064;49.310;8.646;2023-03-01T03:36:07;101351.97;;;3.63;53.98
19736;BME280;32064;49.310;8.646;2023-03-01T03:38:38;101345.00;;;3.64;54.07
19736;BME280;32064;49.310;8.646;2023-03-01T03:41:07;101344.16;;;3.63;54.35
19736;BME280;32064;49.310;8.646;2023-03-01T03:43:35;101349.44;;;3.60;54.70
19736;BME280;32064;49.310;8.646;2023-03-01T03:46:00;101344.22;;;3.60;54.33
19736;BME280;32064;49.310;8.646;2023-03-01T03:48:28;101343.38;;;3.59;55.36
19736;BME280;32064;49.310;8.646;2023-03-01T03:50:55;101340.78;;;3.59;53.98
19736;BME280;32064;49.310;8.646;2023-03-01T03:53:22;101346.91;;;3.57;54.42
19736;BME280;32064;49.310;8.646;2023-03-01T03:55:48;101340.84;;;3.56;54.65
19736;BME280;32064;49.310;8.646;2023-03-01T03:58:15;101334.00;;;3.54;54.57
19736;BME280;32064;49.310;8.646;2023-03-01T04:00:44;101331.41;;;3.52;55.47
19736;BME280;32064;49.310;8.646;2023-03-01T04:03:11;101330.56;;;3.52;54.65
19736;BME280;32064;49.310;8.646;2023-03-01T04:05:38;101325.44;;;3.49;55.27
19736;BME280;32064;49.310;8.646;2023-03-01T04:08:04;101319.31;;;3.51;54.47
19736;BME280;32064;49.310;8.646;2023-03-01T04:10:41;101318.56;;;3.46;55.22
19736;BME280;32064;49.310;8.646;2023-03-01T04:13:11;101318.53;;;3.48;55.80
19736;BME280;32064;49.310;8.646;2023-03-01T04:15:37;101322.03;;;3.45;54.62
19736;BME280;32064;49.310;8.646;2023-03-01T04:18:03;101318.56;;;3.46;55.51
19736;BME280;32064;49.310;8.646;2023-03-01T04:20:30;101317.72;;;3.46;55.34
19736;BME280;32064;49.310;8.646;2023-03-01T04:22:59;101311.69;;;3.44;55.59
19736;BME280;32064;49.310;8.646;2023-03-01T04:25:25;101320.34;;;3.46;54.82
19736;BME280;32064;49.310;8.646;2023-03-01T04:27:50;101316.00;;;3.45;55.53
19736;BME280;32064;49.310;8.646;2023-03-01T04:30:16;101321.19;;;3.46;55.30
19736;BME280;32064;49.310;8.646;2023-03-01T04:32:41;101311.63;;;3.47;54.83
19736;BME280;32064;49.310;8.646;2023-03-01T04:35:08;101311.63;;;3.47;55.48
19736;BME280;32064;49.310;8.646;2023-03-01T04:37:33;101316.84;;;3.45;55.82
19736;BME280;32064;49.310;8.646;2023-03-01T04:40:00;101316.81;;;3.47;55.86
19736;BME280;32064;49.310;8.646;2023-03-01T04:42:26;101321.19;;;3.46;55.63
19736;BME280;32064;49.310;8.646;2023-03-01T04:44:52;101317.66;;;3.47;55.19
19736;BME280;32064;49.310;8.646;2023-03-01T04:47:17;101324.63;;;3.47;55.73
19736;BME280;32064;49.310;8.646;2023-03-01T04:49:42;101326.31;;;3.48;55.33
19736;BME280;32064;49.310;8.646;2023-03-01T04:52:08;101325.44;;;3.49;55.07
19736;BME280;32064;49.310;8.646;2023-03-01T04:54:35;101320.28;;;3.47;55.60
19736;BME280;32064;49.310;8.646;2023-03-01T04:57:01;101317.66;;;3.49;55.35
19736;BME280;32064;49.310;8.646;2023-03-01T04:59:27;101321.13;;;3.48;55.74
19736;BME280;32064;49.310;8.646;2023-03-01T05:01:54;101326.38;;;3.46;55.95
19736;BME280;32064;49.310;8.646;2023-03-01T05:04:21;101325.47;;;3.47;55.40
19736;BME280;32064;49.310;8.646;2023-03-01T05:06:47;101327.22;;;3.47;54.98
19736;BME280;32064;49.310;8.646;2023-03-01T05:09:12;101328.13;;;3.46;55.92
19736;BME280;32064;49.310;8.646;2023-03-01T05:11:38;101324.66;;;3.45;55.26
19736;BME280;32064;49.310;8.646;2023-03-01T05:14:04;101324.72;;;3.44;55.39
19736;BME280;32064;49.310;8.646;2023-03-01T05:16:30;101322.03;;;3.45;56.07
19736;BME280;32064;49.310;8.646;2023-03-01T05:18:56;101318.59;;;3.45;55.92
19736;BME280;32064;49.310;8.646;2023-03-01T05:21:22;101330.72;;;3.46;55.68
19736;BME280;32064;49.310;8.646;2023-03-01T05:23:48;101326.41;;;3.45;55.42
19736;BME280;32064;49.310;8.646;2023-03-01T05:26:14;101323.81;;;3.45;56.45
19736;BME280;32064;49.310;8.646;2023-03-01T05:28:39;101323.81;;;3.45;56.19
19736;BME280;32064;49.310;8.646;2023-03-01T05:31:05;101327.31;;;3.44;56.22
19736;BME280;32064;49.310;8.646;2023-03-01T05:33:39;101329.16;;;3.38;55.47
19736;BME280;32064;49.310;8.646;2023-03-01T05:36:08;101337.81;;;3.39;55.49
19736;BME280;32064;49.310;8.646;2023-03-01T05:38:37;101332.63;;;3.39;55.32
19736;BME280;32064;49.310;8.646;2023-03-01T05:41:02;101332.66;;;3.37;56.37
19736;BME280;32064;49.310;8.646;2023-03-01T05:43:31;101329.28;;;3.34;56.49
19736;BME280;32064;49.310;8.646;2023-03-01T05:45:59;101332.84;;;3.30;56.02
19736;BME280;32064;49.310;8.646;2023-03-01T05:48:25;101328.56;;;3.29;55.78
19736;BME280;32064;49.310;8.646;2023-03-01T05:50:51;101327.72;;;3.27;55.42
19736;BME280;32064;49.310;8.646;2023-03-01T05:53:19;101330.31;;;3.27;56.55
19736;BME280;32064;49.310;8.646;2023-03-01T05:55:47;101330.25;;;3.30;55.75
19736;BME280;32064;49.310;8.646;2023-03-01T05:58:17;101321.69;;;3.26;56.03
19736;BME280;32064;49.310;8.646;2023-03-01T06:00:44;101320.69;;;3.30;55.92
19736;BME280;32064;49.310;8.646;2023-03-01T06:03:12;101323.22;;;3.33;55.99
19736;BME280;32064;49.310;8.646;2023-03-01T06:05:39;101322.44;;;3.31;56.17
19736;BME280;32064;49.310;8.646;2023-03-01T06:08:04;101326.72;;;3.32;56.67
19736;BME280;32064;49.310;8.646;2023-03-01T06:10:30;101317.22;;;3.31;56.55
19736;BME280;32064;49.310;8.646;2023-03-01T06:12:56;101322.38;;;3.33;56.24
19736;BME280;32064;49.310;8.646;2023-03-01T06:15:22;101323.19;;;3.35;56.50
19736;BME280;32064;49.310;8.646;2023-03-01T06:17:48;101324.03;;;3.35;55.68
19736;BME280;32064;49.310;8.646;2023-03-01T06:20:16;101320.53;;;3.36;55.67
19736;BME280;32064;49.310;8.646;2023-03-01T06:22:45;101320.47;;;3.40;56.14
19736;BME280;32064;49.310;8.646;2023-03-01T06:25:13;101321.34;;;3.40;56.09
19736;BME280;32064;49.310;8.646;2023-03-01T06:27:40;101321.28;;;3.42;55.17
19736;BME280;32064;49.310;8.646;2023-03-01T06:30:06;101323.94;;;3.40;56.34
19736;BME280;32064;49.310;8.646;2023-03-01T06:32:33;101321.34;;;3.40;55.38
19736;BME280;32064;49.310;8.646;2023-03-01T06:34:58;101320.34;;;3.44;55.46
19736;BME280;32064;49.310;8.646;2023-03-01T06:37:27;101323.81;;;3.45;55.74
19736;BME280;32064;49.310;8.646;2023-03-01T06:39:52;101322.03;;;3.47;56.04
19736;BME280;32064;49.310;8.646;2023-03-01T06:42:18;101319.34;;;3.50;55.80
19736;BME280;32064;49.310;8.646;2023-03-01T06:44:44;101311.53;;;3.50;55.07
19736;BME280;32064;49.310;8.646;2023-03-01T06:47:09;101322.63;;;3.56;55.40
19736;BME280;32064;49.310;8.646;2023-03-01T06:49:35;101317.31;;;3.61;55.25
19736;BME280;32064;49.310;8.646;2023-03-01T06:52:00;101320.50;;;3.71;55.04
19736;BME280;32064;49.310;8.646;2023-03-01T06:54:26;101318.84;;;4.60;54.56
19736;BME280;32064;49.310;8.646;2023-03-01T06:56:51;101316.06;;;5.98;50.53
19736;BME280;32064;49.310;8.646;2023-03-01T06:59:17;101316.09;;;5.20;51.18
19736;BME280;32064;49.310;8.646;2023-03-01T07:01:42;101311.53;;;5.26;51.80
19736;BME280;32064;49.310;8.646;2023-03-01T07:04:08;101306.56;;;6.64;49.04
19736;BME280;32064;49.310;8.646;2023-03-01T07:06:34;101301.06;;;8.15;47.04
19736;BME280;32064;49.310;8.646;2023-03-01T07:08:59;101302.25;;;9.03;44.98
19736;BME280;32064;49.310;8.646;2023-03-01T07:11:24;101302.94;;;9.76;43.35
19736;BME280;32064;49.310;8.646;2023-03-01T07:13:50;101309.03;;;9.94;44.13
19736;BME280;32064;49.310;8.646;2023-03-01T07:16:15;101310.63;;;10.61;41.96
19736;BME280;32064;49.310;8.646;2023-03-01T07:18:41;101302.25;;;11.16;40.22
19736;BME280;32064;49.310;8.646;2023-03-01T07:21:08;101300.78;;;11.71;39.31
19736;BME280;32064;49.310;8.646;2023-03-01T07:23:34;101302.91;;;11.95;40.57
19736;BME280;32064;49.310;8.646;2023-03-01T07:26:00;101302.47;;;11.28;40.28
19736;BME280;32064;49.310;8.646;2023-03-01T07:28:26;101294.84;;;9.28;44.29
19736;BME280;32064;49.310;8.646;2023-03-01T07:30:52;101288.34;;;8.26;45.87
19736;BME280;32064;49.310;8.646;2023-03-01T07:33:17;101293.13;;;7.58;46.26
19736;BME280;32064;49.310;8.646;2023-03-01T07:35:43;101283.03;;;7.08;47.84
19736;BME280;32064;49.310;8.646;2023-03-01T07:38:08;101285.38;;;6.72;48.72
19736;BME280;32064;49.310;8.646;2023-03-01T07:40:34;101279.16;;;6.52;49.53
19736;BME280;32064;49.310;8.646;2023-03-01T07:43:00;101280.41;;;6.42;49.58
19736;BME280;32064;49.310;8.646;2023-03-01T07:45:26;101281.16;;;6.46;48.97
19736;BME280;32064;49.310;8.646;2023-03-01T07:47:52;101282.25;;;6.40;49.10
19736;BME280;32064;49.310;8.646;2023-03-01T07:50:18;101275.75;;;6.28;48.54
19736;BME280;32064;49.310;8.646;2023-03-01T07:52:47;101281.16;;;6.22;49.14
19736;BME280;32064;49.310;8.646;2023-03-01T07:55:14;101268.91;;;6.24;48.87
19736;BME280;32064;49.310;8.646;2023-03-01T07:57:39;101265.44;;;6.24;48.75
19736;BME280;32064;49.310;8.646;2023-03-01T08:00:07;101268.00;;;6.25;49.81
19736;BME280;32064;49.310;8.646;2023-03-01T08:02:36;101277.44;;;6.29;48.85
19736;BME280;32064;49.310;8.646;2023-03-01T08:05:01;101272.66;;;6.41;48.84
19736;BME280;32064;49.310;8.646;2023-03-01T08:07:27;101271.28;;;6.54;49.28
19736;BME280;32064;49.310;8.646;2023-03-01T08:09:52;101280.69;;;6.80;49.16
19736;BME280;32064;49.310;8.646;2023-03-01T08:12:17;101282.47;;;7.22;48.90
19736;BME280;32064;49.310;8.646;2023-03-01T08:14:43;101277.69;;;7.92;47.29
19736;BME280;32064;49.310;8.646;2023-03-01T08:17:08;101274.16;;;9.57;45.74
19736;BME280;32064;49.310;8.646;2023-03-01T08:19:34;101280.06;;;11.79;40.64
19736;BME280;32064;49.310;8.646;2023-03-01T08:22:01;101280.28;;;12.88;38.74
19736;BME280;32064;49.310;8.646;2023-03-01T08:24:26;101277.13;;;14.12;37.37
19736;BME280;32064;49.310;8.646;2023-03-01T08:26:52;101273.63;;;14.85;36.95
19736;BME280;32064;49.310;8.646;2023-03-01T08:29:17;101267.00;;;15.61;36.15
19736;BME280;32064;49.310;8.646;2023-03-01T08:31:43;101272.84;;;16.11;34.67
19736;BME280;32064;49.310;8.646;2023-03-01T08:34:11;101268.31;;;16.57;34.66
19736;BME280;32064;49.310;8.646;2023-03-01T08:36:43;101258.78;;;16.87;34.33
19736;BME280;32064;49.310;8.646;2023-03-01T08:39:10;101256.56;;;17.03;34.18
19736;BME280;32064;49.310;8.646;2023-03-01T08:41:36;101254.50;;;17.27;33.20
19736;BME280;32064;49.310;8.646;2023-03-01T08:44:02;101252.47;;;17.62;32.43
19736;BME280;32064;49.310;8.646;2023-03-01T08:46:31;101245.88;;;17.66;32.72
19736;BME280;32064;49.310;8.646;2023-03-01T08:48:57;101253.59;;;17.90;32.58
19736;BME280;32064;49.310;8.646;2023-03-01T08:51:23;101247.75;;;17.96;31.04
19736;BME280;32064;49.310;8.646;2023-03-01T08:53:49;101238.16;;;17.63;31.09
19736;BME280;32064;49.310;8.646;2023-03-01T08:56:15;101243.25;;;17.45;31.71
19736;BME280;32064;49.310;8.646;2023-03-01T08:58:45;101241.88;;;15.32;32.95
19736;BME280;32064;49.310;8.646;2023-03-01T09:01:16;101232.09;;;13.75;35.22
19736;BME280;32064;49.310;8.646;2023-03-01T09:03:42;101245.63;;;12.52;36.57
19736;BME280;32064;49.310;8.646;2023-03-01T09:06:08;101239.22;;;11.72;36.75
19736;BME280;32064;49.310;8.646;2023-03-01T09:08:41;101234.34;;;11.07;38.00
19736;BME280;32064;49.310;8.646;2023-03-01T09:11:08;101241.56;;;11.18;39.74
19736;BME280;32064;49.310;8.646;2023-03-01T09:13:34;101233.19;;;10.81;40.71
19736;BME280;32064;49.310;8.646;2023-03-01T09:16:02;101239.09;;;10.54;40.59
19736;BME280;32064;49.310;8.646;2023-03-01T09:18:28;101228.44;;;10.42;40.01
19736;BME280;32064;49.310;8.646;2023-03-01T09:21:06;101231.72;;;10.29;39.94
19736;BME280;32064;49.310;8.646;2023-03-01T09:23:39;101227.81;;;10.05;40.15
19736;BME280;32064;49.310;8.646;2023-03-01T09:26:07;101232.03;;;9.92;41.45
19736;BME280;32064;49.310;8.646;2023-03-01T09:28:33;101227.72;;;10.22;40.47
19736;BME280;32064;49.310;8.646;2023-03-01T09:31:00;101223.25;;;10.86;39.32
19736;BME280;32064;49.310;8.646;2023-03-01T09:33:26;101223.19;;;12.72;37.92
19736;BME280;32064;49.310;8.646;2023-03-01T09:35:59;101224.63;;;14.19;35.46
19736;BME280;32064;49.310;8.646;2023-03-01T09:38:25;101225.97;;;15.32;34.33
19736;BME280;32064;49.310;8.646;2023-03-01T09:40:51;101225.19;;;15.99;32.94
19736;BME280;32064;49.310;8.646;2023-03-01T09:46:13;101216.88;;;17.11;33.04
19736;BME280;32064;49.310;8.646;2023-03-01T09:48:49;101217.59;;;17.65;32.25
19736;BME280;32064;49.310;8.646;2023-03-01T09:53:54;101213.38;;;18.72;30.35
19736;BME280;32064;49.310;8.646;2023-03-01T09:56:26;101210.56;;;19.13;30.04
19736;BME280;32064;49.310;8.646;2023-03-01T10:01:32;101205.06;;;19.24;28.96
19736;BME280;32064;49.310;8.646;2023-03-01T10:04:32;101203.84;;;19.09;28.86
19736;BME280;32064;49.310;8.646;2023-03-01T10:09:40;101205.97;;;20.62;27.91
19736;BME280;32064;49.310;8.646;2023-03-01T10:12:30;101198.13;;;21.31;27.87
19736;BME280;32064;49.310;8.646;2023-03-01T10:15:04;101191.78;;;21.58;27.14
19736;BME280;32064;49.310;8.646;2023-03-01T10:17:37;101185.06;;;21.54;26.76
19736;BME280;32064;49.310;8.646;2023-03-01T10:20:26;101183.97;;;21.73;27.69
19736;BME280;32064;49.310;8.646;2023-03-01T10:22:52;101186.56;;;21.91;26.51
19736;BME280;32064;49.310;8.646;2023-03-01T10:28:29;101178.25;;;21.68;26.84
19736;BME280;32064;49.310;8.646;2023-03-01T10:30:57;101170.28;;;22.35;27.01
19736;BME280;32064;49.310;8.646;2023-03-01T10:33:30;101163.94;;;22.77;25.24
19736;BME280;32064;49.310;8.646;2023-03-01T10:35:56;101153.69;;;22.56;25.22
19736;BME280;32064;49.310;8.646;2023-03-01T10:38:22;101151.84;;;22.64;26.15
19736;BME280;32064;49.310;8.646;2023-03-01T10:40:54;101158.56;;;22.77;25.08
19736;BME280;32064;49.310;8.646;2023-03-01T10:43:23;101154.88;;;22.78;25.58
19736;BME280;32064;49.310;8.646;2023-03-01T10:45:49;101152.00;;;23.04;25.21
19736;BME280;32064;49.310;8.646;2023-03-01T10:48:19;101145.81;;;23.03;24.69
19736;BME280;32064;49.310;8.646;2023-03-01T10:50:48;101147.31;;;23.14;24.68
19736;BME280;32064;49.310;8.646;2023-03-01T10:56:14;101134.22;;;23.11;24.43
19736;BME280;32064;49.310;8.646;2023-03-01T10:58:58;101131.00;;;23.24;24.91
19736;BME280;32064;49.310;8.646;2023-03-01T11:01:35;101121.50;;;22.64;24.85
19736;BME280;32064;49.310;8.646;2023-03-01T11:04:13;101113.78;;;22.77;25.11
19736;BME280;32064;49.310;8.646;2023-03-01T11:06:41;101105.53;;;23.12;25.54
19736;BME280;32064;49.310;8.646;2023-03-01T11:09:18;101105.56;;;23.51;24.19
19736;BME280;32064;49.310;8.646;2023-03-01T11:11:44;101100.91;;;23.37;24.68
19736;BME280;32064;49.310;8.646;2023-03-01T11:14:16;101094.53;;;23.38;23.17
19736;BME280;32064;49.310;8.646;2023-03-01T11:16:48;101096.22;;;23.70;23.97
19736;BME280;32064;49.310;8.646;2023-03-01T11:19:18;101094.06;;;23.73;23.48
19736;BME280;32064;49.310;8.646;2023-03-01T11:24:16;101095.69;;;23.35;24.70
19736;BME280;32064;49.310;8.646;2023-03-01T11:26:47;101090.81;;;23.47;23.92
19736;BME280;32064;49.310;8.646;2023-03-01T11:29:33;101079.47;;;23.60;23.34
19736;BME280;32064;49.310;8.646;2023-03-01T11:32:03;101084.25;;;23.02;24.27
19736;BME280;32064;49.310;8.646;2023-03-01T11:34:57;101066.25;;;23.19;24.12
19736;BME280;32064;49.310;8.646;2023-03-01T11:40:25;101054.94;;;22.10;24.77
19736;BME280;32064;49.310;8.646;2023-03-01T11:50:48;101044.75;;;22.38;25.23
19736;BME280;32064;49.310;8.646;2023-03-01T11:56:06;101036.91;;;23.09;25.04
19736;BME280;32064;49.310;8.646;2023-03-01T12:01:48;101026.41;;;23.30;24.48
19736;BME280;32064;49.310;8.646;2023-03-01T12:15:07;100995.69;;;22.94;24.88
19736;BME280;32064;49.310;8.646;2023-03-01T12:18:03;100988.13;;;22.97;24.13
19736;BME280;32064;49.310;8.646;2023-03-01T12:23:31;100979.91;;;22.99;24.50
19736;BME280;32064;49.310;8.646;2023-03-01T12:28:50;100971.16;;;23.05;23.76
19736;BME280;32064;49.310;8.646;2023-03-01T12:31:47;100970.19;;;22.98;23.90
19736;BME280;32064;49.310;8.646;2023-03-01T12:45:39;100948.09;;;23.73;24.67
19736;BME280;32064;49.310;8.646;2023-03-01T12:48:27;100937.84;;;23.91;24.04
19736;BME280;32064;49.310;8.646;2023-03-01T12:51:02;100939.19;;;23.95;23.20
19736;BME280;32064;49.310;8.646;2023-03-01T12:53:32;100932.69;;;24.05;24.34
19736;BME280;32064;49.310;8.646;2023-03-01T12:56:07;100910.66;;;23.71;23.25
19736;BME280;32064;49.310;8.646;2023-03-01T13:02:04;100909.13;;;23.46;23.04
19736;BME280;32064;49.310;8.646;2023-03-01T13:04:53;100912.44;;;23.33;23.34
19736;BME280;32064;49.310;8.646;2023-03-01T13:07:30;100918.28;;;23.37;24.44
19736;BME280;32064;49.310;8.646;2023-03-01T13:17:47;100898.28;;;23.39;23.92
19736;BME280;32064;49.310;8.646;2023-03-01T13:20:15;100897.69;;;23.29;24.57
19736;BME280;32064;49.310;8.646;2023-03-01T13:22:42;100892.59;;;22.32;24.46
19736;BME280;32064;49.310;8.646;2023-03-01T13:25:18;100882.56;;;22.26;23.90
19736;BME280;32064;49.310;8.646;2023-03-01T13:27:45;100879.03;;;22.34;25.20
19736;BME280;32064;49.310;8.646;2023-03-01T13:36:47;100872.41;;;21.40;25.36
19736;BME280;32064;49.310;8.646;2023-03-01T13:41:51;100866.88;;;20.06;26.24
19736;BME280;32064;49.310;8.646;2023-03-01T13:46:45;100867.34;;;19.03;27.32
19736;BME280;32064;49.310;8.646;2023-03-01T13:49:18;100867.91;;;18.52;27.07
19736;BME280;32064;49.310;8.646;2023-03-01T13:51:49;100864.38;;;18.24;27.45
19736;BME280;32064;49.310;8.646;2023-03-01T13:54:16;100860.78;;;18.43;28.79
19736;BME280;32064;49.310;8.646;2023-03-01T13:56:44;100863.81;;;18.20;28.28
19736;BME280;32064;49.310;8.646;2023-03-01T13:59:21;100868.75;;;18.15;29.00
19736;BME280;32064;49.310;8.646;2023-03-01T14:01:55;100861.53;;;17.98;29.41
19736;BME280;32064;49.310;8.646;2023-03-01T14:04:24;100861.00;;;17.84;27.89
19736;BME280;32064;49.310;8.646;2023-03-01T14:06:50;100853.69;;;17.77;27.70
19736;BME280;32064;49.310;8.646;2023-03-01T14:09:23;100850.63;;;17.62;28.53
19736;BME280;32064;49.310;8.646;2023-03-01T14:14:47;100853.13;;;17.73;29.77
19736;BME280;32064;49.310;8.646;2023-03-01T14:19:58;100835.34;;;17.83;28.78
19736;BME280;32064;49.310;8.646;2023-03-01T14:22:35;100836.63;;;17.79;29.91
19736;BME280;32064;49.310;8.646;2023-03-01T14:25:28;100844.59;;;17.79;28.43
19736;BME280;32064;49.310;8.646;2023-03-01T14:27:56;100848.53;;;17.46;29.72
19736;BME280;32064;49.310;8.646;2023-03-01T14:30:37;100847.25;;;16.92;29.63
19736;BME280;32064;49.310;8.646;2023-03-01T14:33:06;100850.47;;;16.45;29.54
19736;BME280;32064;49.310;8.646;2023-03-01T14:35:34;100848.75;;;16.04;30.22
19736;BME280;32064;49.310;8.646;2023-03-01T14:38:01;100850.41;;;15.74;30.34
19736;BME280;32064;49.310;8.646;2023-03-01T14:40:28;100851.44;;;15.50;31.36